Brigadeiro Lysias Rodrigues Airport

SBPJ · 托坎廷斯州, 巴西

METAR SBPJ · Brigadeiro Lysias Rodrigues Airport

26 二月 22:00 LT
5m
罗盘
风向 的 风向 120° Brigadeiro Lysias Rodrigues Airport 14/32
风: 3 kt, 1 beaufort

3 kt

改变
0 ft 2.000 4.000 6.000 8.000 10.000
Cloud Cloud
FEW 3.000
Cloud Cloud Cloud Cloud Cloud Cloud
BKN 8.000
METAR SBPJ 270100Z 12003KT 9999 FEW030 BKN080 24/22 Q1012

METAR Brigadeiro Lysias Rodrigues Airport - SBPJ/PMW

Brigadeiro Lysias Rodrigues Airport是,巴西中的中型机场。 该机场位于纬度-10,29150和经度-48,35700。 该机场有一条跑道: 14/32. 本场的ICAO机场代码为SBPJ。 该机场的IATA代码为PMW。 机场在Brasilia FIR中。

该航空气象观测是针对Brigadeiro Lysias Rodrigues Airport在2024年2月26日 22:00, 当地时间进行的。

机场观察

风向为120°,速度为3 kt。

可见度为10 km 或者更多。

有几云在3.000 ft的高度 和 碎云在8.000 ft的高度。 破损或更高的上限为8.000 ft。

温度和风寒是24 °C。 露点为22 °C,相对湿度为89%。 海平面上的气压为1012 hPa (QNH)。

白天

今天,太阳从06:16升起,在18:35降落。 这适用于Brigadeiro Lysias Rodrigues Airport,世界夏令时可能有所不同。 当地时间与世界标准时间之间的时差为-3 小时。 当前,没有夏令时有效。

公司介绍

我们没有关于这个机场的公司信息。

体会

到Vliegles.nl去找飞行课程,跳伞和其他飞行体验。 浏览页面,了解Brigadeiro Lysias Rodrigues Airport附近所有可用的活动。 你也可以使用搜索功能来寻找你所在地附近的特定飞行课程、跳伞或其他飞行体验。

跑道

Id 标题 侧风 逆风 侧风 %
14/32 124°-304° 3 kt 7 %

逆风成分最大的方向会被突出显示,并用于横风计算。 这并不一定意味着这个方向在使用。

乌云

3.000 ft FEW 几云
8.000 ft BKN 碎云

温度 & 天气

温度 24 °C
露点 22 °C
相对湿度 89%
Kp-index 3 (0-9)

白天

日出
06:16 (8:11)
中午
12:26
日落
18:35

小工具

你想在你的网站上有一个关于Brigadeiro Lysias Rodrigues Airport的当前航空天气(METAR)的小部件吗?

显示HTML代码
?>